sensor_id;sensor_type;location;lat;lon;timestamp;P1;durP1;ratioP1;P2;durP2;ratioP2
23543;SDS011;11950;51.230;4.012;2023-08-08T00:02:20;14.05;;;7.00;;
23543;SDS011;11950;51.230;4.012;2023-08-08T00:04:46;18.48;;;7.53;;
23543;SDS011;11950;51.230;4.012;2023-08-08T00:07:13;16.45;;;6.50;;
23543;SDS011;11950;51.230;4.012;2023-08-08T00:09:40;16.10;;;6.25;;
23543;SDS011;11950;51.230;4.012;2023-08-08T00:12:06;14.40;;;6.18;;
23543;SDS011;11950;51.230;4.012;2023-08-08T00:14:32;18.05;;;7.28;;
23543;SDS011;11950;51.230;4.012;2023-08-08T00:16:59;15.43;;;6.43;;
23543;SDS011;11950;51.230;4.012;2023-08-08T00:19:25;14.98;;;6.05;;
23543;SDS011;11950;51.230;4.012;2023-08-08T00:21:51;14.95;;;6.57;;
23543;SDS011;11950;51.230;4.012;2023-08-08T00:24:17;19.25;;;7.18;;
23543;SDS011;11950;51.230;4.012;2023-08-08T00:26:43;19.42;;;7.43;;
23543;SDS011;11950;51.230;4.012;2023-08-08T00:29:10;16.60;;;6.95;;
23543;SDS011;11950;51.230;4.012;2023-08-08T00:31:36;20.10;;;8.13;;
23543;SDS011;11950;51.230;4.012;2023-08-08T00:34:02;16.92;;;7.47;;
23543;SDS011;11950;51.230;4.012;2023-08-08T00:36:29;26.48;;;8.90;;
23543;SDS011;11950;51.230;4.012;2023-08-08T00:38:55;24.48;;;9.60;;
23543;SDS011;11950;51.230;4.012;2023-08-08T00:41:21;20.90;;;8.88;;
23543;SDS011;11950;51.230;4.012;2023-08-08T00:43:48;20.02;;;8.38;;
23543;SDS011;11950;51.230;4.012;2023-08-08T00:46:16;20.50;;;9.02;;
23543;SDS011;11950;51.230;4.012;2023-08-08T00:48:45;25.55;;;9.43;;
23543;SDS011;11950;51.230;4.012;2023-08-08T00:51:12;19.80;;;8.68;;
23543;SDS011;11950;51.230;4.012;2023-08-08T00:53:39;24.23;;;10.15;;
23543;SDS011;11950;51.230;4.012;2023-08-08T00:56:05;25.77;;;9.88;;
23543;SDS011;11950;51.230;4.012;2023-08-08T00:58:32;31.05;;;11.48;;
23543;SDS011;11950;51.230;4.012;2023-08-08T01:00:58;28.88;;;10.88;;
23543;SDS011;11950;51.230;4.012;2023-08-08T01:03:26;30.98;;;12.75;;
23543;SDS011;11950;51.230;4.012;2023-08-08T01:05:58;30.75;;;13.32;;
23543;SDS011;11950;51.230;4.012;2023-08-08T01:08:38;32.28;;;13.25;;
23543;SDS011;11950;51.230;4.012;2023-08-08T01:11:10;30.45;;;12.48;;
23543;SDS011;11950;51.230;4.012;2023-08-08T01:13:40;36.65;;;13.25;;
23543;SDS011;11950;51.230;4.012;2023-08-08T01:16:08;37.33;;;14.43;;
23543;SDS011;11950;51.230;4.012;2023-08-08T01:18:36;33.05;;;14.13;;
23543;SDS011;11950;51.230;4.012;2023-08-08T01:21:03;40.05;;;14.82;;
23543;SDS011;11950;51.230;4.012;2023-08-08T01:23:47;35.28;;;14.55;;
23543;SDS011;11950;51.230;4.012;2023-08-08T01:26:20;29.33;;;13.32;;
23543;SDS011;11950;51.230;4.012;2023-08-08T01:28:47;31.75;;;12.18;;
23543;SDS011;11950;51.230;4.012;2023-08-08T01:31:13;30.88;;;12.15;;
23543;SDS011;11950;51.230;4.012;2023-08-08T01:33:40;22.88;;;10.98;;
23543;SDS011;11950;51.230;4.012;2023-08-08T01:36:12;24.13;;;10.70;;
23543;SDS011;11950;51.230;4.012;2023-08-08T01:38:44;25.98;;;10.57;;
23543;SDS011;11950;51.230;4.012;2023-08-08T01:41:14;26.00;;;10.40;;
23543;SDS011;11950;51.230;4.012;2023-08-08T01:43:41;26.65;;;9.57;;
23543;SDS011;11950;51.230;4.012;2023-08-08T01:46:08;26.85;;;9.50;;
23543;SDS011;11950;51.230;4.012;2023-08-08T01:48:35;25.70;;;9.85;;
23543;SDS011;11950;51.230;4.012;2023-08-08T01:51:02;22.38;;;9.00;;
23543;SDS011;11950;51.230;4.012;2023-08-08T01:53:28;25.63;;;8.75;;
23543;SDS011;11950;51.230;4.012;2023-08-08T01:55:55;19.33;;;8.23;;
23543;SDS011;11950;51.230;4.012;2023-08-08T01:58:21;21.08;;;7.78;;
23543;SDS011;11950;51.230;4.012;2023-08-08T02:00:48;18.13;;;7.03;;
23543;SDS011;11950;51.230;4.012;2023-08-08T02:03:14;17.95;;;7.15;;
23543;SDS011;11950;51.230;4.012;2023-08-08T02:05:40;20.65;;;7.88;;
23543;SDS011;11950;51.230;4.012;2023-08-08T02:08:07;19.70;;;7.60;;
23543;SDS011;11950;51.230;4.012;2023-08-08T02:10:34;17.80;;;7.28;;
23543;SDS011;11950;51.230;4.012;2023-08-08T02:13:00;20.70;;;7.28;;
23543;SDS011;11950;51.230;4.012;2023-08-08T02:15:27;15.38;;;6.40;;
23543;SDS011;11950;51.230;4.012;2023-08-08T02:17:53;19.30;;;7.38;;
23543;SDS011;11950;51.230;4.012;2023-08-08T02:20:19;20.17;;;7.10;;
23543;SDS011;11950;51.230;4.012;2023-08-08T02:22:45;19.33;;;6.78;;
23543;SDS011;11950;51.230;4.012;2023-08-08T02:25:12;20.90;;;8.70;;
23543;SDS011;11950;51.230;4.012;2023-08-08T02:27:38;23.52;;;9.38;;
23543;SDS011;11950;51.230;4.012;2023-08-08T02:30:07;22.55;;;10.20;;
23543;SDS011;11950;51.230;4.012;2023-08-08T02:32:34;23.60;;;10.27;;
23543;SDS011;11950;51.230;4.012;2023-08-08T02:35:01;22.05;;;10.27;;
23543;SDS011;11950;51.230;4.012;2023-08-08T02:37:27;24.13;;;9.65;;
23543;SDS011;11950;51.230;4.012;2023-08-08T02:39:53;24.73;;;10.80;;
23543;SDS011;11950;51.230;4.012;2023-08-08T02:42:20;26.70;;;11.77;;
23543;SDS011;11950;51.230;4.012;2023-08-08T02:44:46;23.38;;;11.30;;
23543;SDS011;11950;51.230;4.012;2023-08-08T02:47:12;23.95;;;11.68;;
23543;SDS011;11950;51.230;4.012;2023-08-08T02:49:39;28.00;;;12.63;;
23543;SDS011;11950;51.230;4.012;2023-08-08T02:52:06;26.67;;;11.65;;
23543;SDS011;11950;51.230;4.012;2023-08-08T02:54:34;28.75;;;11.63;;
23543;SDS011;11950;51.230;4.012;2023-08-08T02:57:00;25.17;;;10.93;;
23543;SDS011;11950;51.230;4.012;2023-08-08T02:59:27;23.25;;;9.55;;
23543;SDS011;11950;51.230;4.012;2023-08-08T03:01:55;17.67;;;8.18;;
23543;SDS011;11950;51.230;4.012;2023-08-08T03:04:21;18.70;;;7.05;;
23543;SDS011;11950;51.230;4.012;2023-08-08T03:06:47;12.30;;;5.25;;
23543;SDS011;11950;51.230;4.012;2023-08-08T03:09:14;14.13;;;5.03;;
23543;SDS011;11950;51.230;4.012;2023-08-08T03:11:41;12.05;;;4.13;;
23543;SDS011;11950;51.230;4.012;2023-08-08T03:14:09;11.75;;;3.88;;
23543;SDS011;11950;51.230;4.012;2023-08-08T03:16:37;15.65;;;4.85;;
23543;SDS011;11950;51.230;4.012;2023-08-08T03:19:03;15.40;;;3.97;;
23543;SDS011;11950;51.230;4.012;2023-08-08T03:21:30;9.48;;;4.28;;
23543;SDS011;11950;51.230;4.012;2023-08-08T03:23:57;10.63;;;3.67;;
23543;SDS011;11950;51.230;4.012;2023-08-08T03:26:23;12.00;;;4.70;;
23543;SDS011;11950;51.230;4.012;2023-08-08T03:28:49;10.80;;;4.25;;
23543;SDS011;11950;51.230;4.012;2023-08-08T03:31:21;13.13;;;5.18;;
23543;SDS011;11950;51.230;4.012;2023-08-08T03:33:48;26.00;;;10.43;;
23543;SDS011;11950;51.230;4.012;2023-08-08T03:36:14;20.92;;;10.07;;
23543;SDS011;11950;51.230;4.012;2023-08-08T03:38:41;27.98;;;11.43;;
23543;SDS011;11950;51.230;4.012;2023-08-08T03:41:11;30.97;;;13.10;;
23543;SDS011;11950;51.230;4.012;2023-08-08T03:43:39;30.92;;;14.82;;
23543;SDS011;11950;51.230;4.012;2023-08-08T03:46:05;39.15;;;17.05;;
23543;SDS011;11950;51.230;4.012;2023-08-08T03:48:32;38.72;;;17.10;;
23543;SDS011;11950;51.230;4.012;2023-08-08T03:50:58;33.55;;;16.65;;
23543;SDS011;11950;51.230;4.012;2023-08-08T03:53:24;33.38;;;16.85;;
23543;SDS011;11950;51.230;4.012;2023-08-08T03:55:51;33.33;;;17.27;;
23543;SDS011;11950;51.230;4.012;2023-08-08T03:58:17;44.00;;;19.83;;
23543;SDS011;11950;51.230;4.012;2023-08-08T04:00:43;36.10;;;18.67;;
23543;SDS011;11950;51.230;4.012;2023-08-08T04:03:15;33.50;;;17.63;;
23543;SDS011;11950;51.230;4.012;2023-08-08T04:05:45;32.28;;;17.30;;
23543;SDS011;11950;51.230;4.012;2023-08-08T04:08:15;41.55;;;19.73;;
23543;SDS011;11950;51.230;4.012;2023-08-08T04:10:42;38.85;;;19.67;;
23543;SDS011;11950;51.230;4.012;2023-08-08T04:13:09;36.90;;;18.88;;
23543;SDS011;11950;51.230;4.012;2023-08-08T04:15:36;41.30;;;19.98;;
23543;SDS011;11950;51.230;4.012;2023-08-08T04:18:02;37.95;;;19.55;;
23543;SDS011;11950;51.230;4.012;2023-08-08T04:20:32;38.85;;;19.85;;
23543;SDS011;11950;51.230;4.012;2023-08-08T04:23:01;35.00;;;18.27;;
23543;SDS011;11950;51.230;4.012;2023-08-08T04:25:27;43.08;;;19.90;;
23543;SDS011;11950;51.230;4.012;2023-08-08T04:27:54;35.83;;;17.88;;
23543;SDS011;11950;51.230;4.012;2023-08-08T04:30:20;37.40;;;18.40;;
23543;SDS011;11950;51.230;4.012;2023-08-08T04:32:46;33.85;;;17.38;;
23543;SDS011;11950;51.230;4.012;2023-08-08T04:35:12;38.40;;;17.63;;
23543;SDS011;11950;51.230;4.012;2023-08-08T04:37:39;37.20;;;17.88;;
23543;SDS011;11950;51.230;4.012;2023-08-08T04:40:05;32.08;;;15.98;;
23543;SDS011;11950;51.230;4.012;2023-08-08T04:42:34;32.70;;;16.83;;
23543;SDS011;11950;51.230;4.012;2023-08-08T04:45:00;30.23;;;16.05;;
23543;SDS011;11950;51.230;4.012;2023-08-08T04:47:26;31.77;;;15.65;;
23543;SDS011;11950;51.230;4.012;2023-08-08T04:49:52;35.20;;;15.52;;
23543;SDS011;11950;51.230;4.012;2023-08-08T04:52:19;33.95;;;14.45;;
23543;SDS011;11950;51.230;4.012;2023-08-08T04:54:45;32.30;;;15.15;;
23543;SDS011;11950;51.230;4.012;2023-08-08T04:57:11;31.45;;;14.77;;
23543;SDS011;11950;51.230;4.012;2023-08-08T04:59:37;27.15;;;13.40;;
23543;SDS011;11950;51.230;4.012;2023-08-08T05:02:03;27.60;;;13.48;;
23543;SDS011;11950;51.230;4.012;2023-08-08T05:04:30;28.52;;;14.43;;
23543;SDS011;11950;51.230;4.012;2023-08-08T05:06:56;24.42;;;12.93;;
23543;SDS011;11950;51.230;4.012;2023-08-08T05:09:26;22.17;;;12.38;;
23543;SDS011;11950;51.230;4.012;2023-08-08T05:11:53;27.17;;;12.27;;
23543;SDS011;11950;51.230;4.012;2023-08-08T05:14:19;21.35;;;10.70;;
23543;SDS011;11950;51.230;4.012;2023-08-08T05:16:45;20.33;;;10.50;;
23543;SDS011;11950;51.230;4.012;2023-08-08T05:19:12;24.35;;;11.57;;
23543;SDS011;11950;51.230;4.012;2023-08-08T05:21:38;23.70;;;11.52;;
23543;SDS011;11950;51.230;4.012;2023-08-08T05:24:04;28.90;;;11.43;;
23543;SDS011;11950;51.230;4.012;2023-08-08T05:26:30;20.48;;;11.30;;
23543;SDS011;11950;51.230;4.012;2023-08-08T05:28:57;20.92;;;10.90;;
23543;SDS011;11950;51.230;4.012;2023-08-08T05:31:23;26.52;;;12.65;;
23543;SDS011;11950;51.230;4.012;2023-08-08T05:33:49;24.85;;;12.88;;
23543;SDS011;11950;51.230;4.012;2023-08-08T05:36:15;27.65;;;13.02;;
23543;SDS011;11950;51.230;4.012;2023-08-08T05:38:42;26.23;;;13.00;;
23543;SDS011;11950;51.230;4.012;2023-08-08T05:41:08;25.23;;;13.88;;
23543;SDS011;11950;51.230;4.012;2023-08-08T05:43:34;25.33;;;13.15;;
23543;SDS011;11950;51.230;4.012;2023-08-08T05:46:01;25.65;;;14.05;;
23543;SDS011;11950;51.230;4.012;2023-08-08T05:48:27;25.20;;;12.98;;
23543;SDS011;11950;51.230;4.012;2023-08-08T05:50:53;30.48;;;14.27;;
23543;SDS011;11950;51.230;4.012;2023-08-08T05:53:19;29.27;;;12.88;;
23543;SDS011;11950;51.230;4.012;2023-08-08T05:55:46;28.08;;;13.40;;
23543;SDS011;11950;51.230;4.012;2023-08-08T05:58:12;29.80;;;13.38;;
23543;SDS011;11950;51.230;4.012;2023-08-08T06:00:39;30.65;;;14.15;;
23543;SDS011;11950;51.230;4.012;2023-08-08T06:03:06;24.65;;;15.98;;
23543;SDS011;11950;51.230;4.012;2023-08-08T06:05:32;30.40;;;15.30;;
23543;SDS011;11950;51.230;4.012;2023-08-08T06:07:58;28.83;;;14.90;;
23543;SDS011;11950;51.230;4.012;2023-08-08T06:10:25;29.02;;;14.85;;
23543;SDS011;11950;51.230;4.012;2023-08-08T06:12:51;23.67;;;13.77;;
23543;SDS011;11950;51.230;4.012;2023-08-08T06:15:17;28.40;;;15.13;;
23543;SDS011;11950;51.230;4.012;2023-08-08T06:17:44;26.23;;;14.18;;
23543;SDS011;11950;51.230;4.012;2023-08-08T06:20:10;22.20;;;13.63;;
23543;SDS011;11950;51.230;4.012;2023-08-08T06:22:37;25.67;;;13.65;;
23543;SDS011;11950;51.230;4.012;2023-08-08T06:25:03;27.42;;;13.00;;
23543;SDS011;11950;51.230;4.012;2023-08-08T06:27:29;25.38;;;12.75;;
23543;SDS011;11950;51.230;4.012;2023-08-08T06:29:56;24.88;;;12.23;;
23543;SDS011;11950;51.230;4.012;2023-08-08T06:32:22;26.90;;;12.20;;
23543;SDS011;11950;51.230;4.012;2023-08-08T06:34:48;21.67;;;11.05;;
23543;SDS011;11950;51.230;4.012;2023-08-08T06:37:14;24.27;;;10.85;;
23543;SDS011;11950;51.230;4.012;2023-08-08T06:39:41;19.02;;;10.32;;
23543;SDS011;11950;51.230;4.012;2023-08-08T06:42:07;17.63;;;8.15;;
23543;SDS011;11950;51.230;4.012;2023-08-08T06:44:46;16.23;;;7.40;;
23543;SDS011;11950;51.230;4.012;2023-08-08T06:47:12;21.58;;;7.38;;
23543;SDS011;11950;51.230;4.012;2023-08-08T06:49:38;17.50;;;6.60;;
23543;SDS011;11950;51.230;4.012;2023-08-08T06:52:05;12.15;;;4.95;;
23543;SDS011;11950;51.230;4.012;2023-08-08T06:54:32;12.00;;;4.35;;
23543;SDS011;11950;51.230;4.012;2023-08-08T06:56:59;8.85;;;4.00;;
23543;SDS011;11950;51.230;4.012;2023-08-08T06:59:27;12.13;;;3.60;;
23543;SDS011;11950;51.230;4.012;2023-08-08T07:01:53;11.82;;;3.45;;
23543;SDS011;11950;51.230;4.012;2023-08-08T07:04:19;11.52;;;3.60;;
23543;SDS011;11950;51.230;4.012;2023-08-08T07:06:48;12.35;;;3.97;;
23543;SDS011;11950;51.230;4.012;2023-08-08T07:09:14;8.52;;;4.35;;
23543;SDS011;11950;51.230;4.012;2023-08-08T07:11:40;12.88;;;5.97;;
23543;SDS011;11950;51.230;4.012;2023-08-08T07:14:06;17.48;;;8.38;;
23543;SDS011;11950;51.230;4.012;2023-08-08T07:16:32;13.07;;;7.57;;
23543;SDS011;11950;51.230;4.012;2023-08-08T07:18:59;17.30;;;8.88;;
23543;SDS011;11950;51.230;4.012;2023-08-08T07:21:25;17.58;;;9.75;;
23543;SDS011;11950;51.230;4.012;2023-08-08T07:23:52;20.10;;;9.77;;
23543;SDS011;11950;51.230;4.012;2023-08-08T07:26:19;28.73;;;12.27;;
23543;SDS011;11950;51.230;4.012;2023-08-08T07:28:47;20.60;;;12.55;;
23543;SDS011;11950;51.230;4.012;2023-08-08T07:31:13;22.63;;;12.82;;
23543;SDS011;11950;51.230;4.012;2023-08-08T07:33:40;27.05;;;13.57;;
23543;SDS011;11950;51.230;4.012;2023-08-08T07:36:06;27.33;;;13.50;;
23543;SDS011;11950;51.230;4.012;2023-08-08T07:38:32;30.67;;;13.40;;
23543;SDS011;11950;51.230;4.012;2023-08-08T07:40:59;25.38;;;13.38;;
23543;SDS011;11950;51.230;4.012;2023-08-08T07:43:25;28.27;;;15.10;;
23543;SDS011;11950;51.230;4.012;2023-08-08T07:45:52;29.63;;;16.40;;
23543;SDS011;11950;51.230;4.012;2023-08-08T07:48:18;34.45;;;17.67;;
23543;SDS011;11950;51.230;4.012;2023-08-08T07:50:44;33.90;;;18.55;;
23543;SDS011;11950;51.230;4.012;2023-08-08T07:53:11;31.85;;;17.60;;
23543;SDS011;11950;51.230;4.012;2023-08-08T07:55:37;35.58;;;18.95;;
23543;SDS011;11950;51.230;4.012;2023-08-08T07:58:03;29.52;;;16.95;;
23543;SDS011;11950;51.230;4.012;2023-08-08T08:00:29;39.13;;;19.05;;
23543;SDS011;11950;51.230;4.012;2023-08-08T08:02:56;34.83;;;18.30;;
23543;SDS011;11950;51.230;4.012;2023-08-08T08:05:22;38.90;;;20.92;;
23543;SDS011;11950;51.230;4.012;2023-08-08T08:07:48;32.95;;;19.08;;
23543;SDS011;11950;51.230;4.012;2023-08-08T08:10:15;22.75;;;13.25;;
23543;SDS011;11950;51.230;4.012;2023-08-08T08:12:41;26.90;;;11.73;;
23543;SDS011;11950;51.230;4.012;2023-08-08T08:15:08;19.00;;;8.60;;
23543;SDS011;11950;51.230;4.012;2023-08-08T08:17:35;11.20;;;5.82;;
23543;SDS011;11950;51.230;4.012;2023-08-08T08:20:01;10.77;;;4.68;;
23543;SDS011;11950;51.230;4.012;2023-08-08T08:22:31;8.57;;;3.00;;
23543;SDS011;11950;51.230;4.012;2023-08-08T08:24:58;5.43;;;2.45;;
23543;SDS011;11950;51.230;4.012;2023-08-08T08:27:24;7.78;;;2.50;;
23543;SDS011;11950;51.230;4.012;2023-08-08T08:29:50;2.92;;;2.45;;
23543;SDS011;11950;51.230;4.012;2023-08-08T08:32:16;7.10;;;2.30;;
23543;SDS011;11950;51.230;4.012;2023-08-08T08:34:43;5.07;;;2.22;;
23543;SDS011;11950;51.230;4.012;2023-08-08T08:37:09;9.23;;;3.08;;
23543;SDS011;11950;51.230;4.012;2023-08-08T08:39:36;5.47;;;2.30;;
23543;SDS011;11950;51.230;4.012;2023-08-08T08:42:02;8.68;;;2.63;;
23543;SDS011;11950;51.230;4.012;2023-08-08T08:44:33;9.00;;;2.70;;
23543;SDS011;11950;51.230;4.012;2023-08-08T08:47:04;7.13;;;2.55;;
23543;SDS011;11950;51.230;4.012;2023-08-08T08:49:36;9.05;;;2.30;;
23543;SDS011;11950;51.230;4.012;2023-08-08T08:52:04;7.55;;;2.50;;
23543;SDS011;11950;51.230;4.012;2023-08-08T08:54:32;4.82;;;2.15;;
23543;SDS011;11950;51.230;4.012;2023-08-08T08:56:58;3.78;;;2.00;;
23543;SDS011;11950;51.230;4.012;2023-08-08T08:59:25;8.82;;;2.05;;
23543;SDS011;11950;51.230;4.012;2023-08-08T09:01:51;5.65;;;2.38;;
23543;SDS011;11950;51.230;4.012;2023-08-08T09:04:19;2.75;;;1.98;;
23543;SDS011;11950;51.230;4.012;2023-08-08T09:06:47;9.98;;;2.78;;
23543;SDS011;11950;51.230;4.012;2023-08-08T09:09:15;6.50;;;2.08;;
23543;SDS011;11950;51.230;4.012;2023-08-08T09:11:42;4.82;;;1.65;;
23543;SDS011;11950;51.230;4.012;2023-08-08T09:14:17;6.47;;;1.95;;
23543;SDS011;11950;51.230;4.012;2023-08-08T09:19:11;5.35;;;1.58;;
23543;SDS011;11950;51.230;4.012;2023-08-08T09:21:39;4.75;;;1.48;;
23543;SDS011;11950;51.230;4.012;2023-08-08T09:24:05;5.40;;;1.30;;
23543;SDS011;11950;51.230;4.012;2023-08-08T09:26:32;5.22;;;1.83;;
23543;SDS011;11950;51.230;4.012;2023-08-08T09:29:00;7.10;;;1.58;;
23543;SDS011;11950;51.230;4.012;2023-08-08T09:31:28;3.25;;;1.60;;
23543;SDS011;11950;51.230;4.012;2023-08-08T09:33:56;3.80;;;1.40;;
23543;SDS011;11950;51.230;4.012;2023-08-08T09:36:24;5.38;;;1.40;;
23543;SDS011;11950;51.230;4.012;2023-08-08T09:38:51;4.15;;;1.27;;
23543;SDS011;11950;51.230;4.012;2023-08-08T09:41:19;2.55;;;1.30;;
23543;SDS011;11950;51.230;4.012;2023-08-08T09:43:50;4.38;;;1.25;;
23543;SDS011;11950;51.230;4.012;2023-08-08T09:46:20;5.18;;;1.42;;
23543;SDS011;11950;51.230;4.012;2023-08-08T09:48:48;4.18;;;1.13;;
23543;SDS011;11950;51.230;4.012;2023-08-08T09:51:14;3.83;;;1.10;;
23543;SDS011;11950;51.230;4.012;2023-08-08T09:53:41;1.58;;;0.93;;
23543;SDS011;11950;51.230;4.012;2023-08-08T09:56:08;1.25;;;0.80;;
23543;SDS011;11950;51.230;4.012;2023-08-08T09:58:34;2.63;;;0.98;;
23543;SDS011;11950;51.230;4.012;2023-08-08T10:01:00;5.22;;;1.20;;
23543;SDS011;11950;51.230;4.012;2023-08-08T10:03:27;3.08;;;0.90;;
23543;SDS011;11950;51.230;4.012;2023-08-08T10:05:54;3.60;;;0.93;;
23543;SDS011;11950;51.230;4.012;2023-08-08T10:08:20;2.10;;;0.95;;
23543;SDS011;11950;51.230;4.012;2023-08-08T10:10:47;2.58;;;1.33;;
23543;SDS011;11950;51.230;4.012;2023-08-08T10:13:24;2.05;;;0.90;;
23543;SDS011;11950;51.230;4.012;2023-08-08T10:15:52;1.98;;;1.00;;
23543;SDS011;11950;51.230;4.012;2023-08-08T10:18:23;3.65;;;1.15;;
23543;SDS011;11950;51.230;4.012;2023-08-08T10:20:50;2.50;;;1.07;;
23543;SDS011;11950;51.230;4.012;2023-08-08T10:23:19;2.90;;;1.25;;
23543;SDS011;11950;51.230;4.012;2023-08-08T10:25:50;3.85;;;1.20;;
23543;SDS011;11950;51.230;4.012;2023-08-08T10:28:19;3.15;;;1.35;;
23543;SDS011;11950;51.230;4.012;2023-08-08T10:33:24;2.42;;;1.02;;
23543;SDS011;11950;51.230;4.012;2023-08-08T10:36:03;2.80;;;1.35;;
23543;SDS011;11950;51.230;4.012;2023-08-08T10:38:45;3.47;;;0.93;;
23543;SDS011;11950;51.230;4.012;2023-08-08T10:41:14;2.28;;;0.80;;
23543;SDS011;11950;51.230;4.012;2023-08-08T10:43:51;3.75;;;1.40;;
23543;SDS011;11950;51.230;4.012;2023-08-08T10:46:31;2.65;;;1.00;;
23543;SDS011;11950;51.230;4.012;2023-08-08T10:48:59;3.45;;;1.05;;
23543;SDS011;11950;51.230;4.012;2023-08-08T10:54:11;1.30;;;0.80;;
23543;SDS011;11950;51.230;4.012;2023-08-08T10:56:55;1.92;;;0.70;;
23543;SDS011;11950;51.230;4.012;2023-08-08T10:59:36;2.80;;;0.75;;
23543;SDS011;11950;51.230;4.012;2023-08-08T11:02:03;3.03;;;0.80;;
23543;SDS011;11950;51.230;4.012;2023-08-08T11:04:30;2.28;;;0.90;;
23543;SDS011;11950;51.230;4.012;2023-08-08T11:06:58;1.17;;;0.60;;
23543;SDS011;11950;51.230;4.012;2023-08-08T11:09:24;1.40;;;0.85;;
23543;SDS011;11950;51.230;4.012;2023-08-08T11:11:52;1.05;;;0.68;;
23543;SDS011;11950;51.230;4.012;2023-08-08T11:14:19;2.55;;;0.77;;
23543;SDS011;11950;51.230;4.012;2023-08-08T11:16:47;1.98;;;0.80;;
23543;SDS011;11950;51.230;4.012;2023-08-08T11:19:14;1.77;;;0.70;;
23543;SDS011;11950;51.230;4.012;2023-08-08T11:21:42;2.05;;;0.70;;
23543;SDS011;11950;51.230;4.012;2023-08-08T11:24:10;2.30;;;0.82;;
23543;SDS011;11950;51.230;4.012;2023-08-08T11:26:39;4.60;;;0.80;;
23543;SDS011;11950;51.230;4.012;2023-08-08T11:29:06;1.52;;;0.88;;
23543;SDS011;11950;51.230;4.012;2023-08-08T11:31:36;3.90;;;0.80;;
23543;SDS011;11950;51.230;4.012;2023-08-08T11:34:03;3.67;;;0.83;;
23543;SDS011;11950;51.230;4.012;2023-08-08T11:36:31;2.90;;;0.70;;
23543;SDS011;11950;51.230;4.012;2023-08-08T11:39:04;2.95;;;1.00;;
23543;SDS011;11950;51.230;4.012;2023-08-08T11:41:33;2.05;;;0.85;;
23543;SDS011;11950;51.230;4.012;2023-08-08T11:44:04;2.28;;;0.90;;
23543;SDS011;11950;51.230;4.012;2023-08-08T11:46:31;1.95;;;0.80;;
23543;SDS011;11950;51.230;4.012;2023-08-08T11:49:04;2.88;;;0.80;;
23543;SDS011;11950;51.230;4.012;2023-08-08T11:51:32;3.17;;;0.80;;
23543;SDS011;11950;51.230;4.012;2023-08-08T11:54:00;1.35;;;0.70;;
23543;SDS011;11950;51.230;4.012;2023-08-08T11:56:28;2.60;;;0.90;;
23543;SDS011;11950;51.230;4.012;2023-08-08T11:58:55;1.92;;;0.80;;
23543;SDS011;11950;51.230;4.012;2023-08-08T12:01:24;1.63;;;1.05;;
23543;SDS011;11950;51.230;4.012;2023-08-08T12:03:52;0.60;;;0.60;;
23543;SDS011;11950;51.230;4.012;2023-08-08T12:06:19;2.42;;;0.60;;
23543;SDS011;11950;51.230;4.012;2023-08-08T12:08:47;1.38;;;0.80;;
23543;SDS011;11950;51.230;4.012;2023-08-08T12:11:14;2.80;;;0.70;;
23543;SDS011;11950;51.230;4.012;2023-08-08T12:13:42;1.85;;;0.80;;
23543;SDS011;11950;51.230;4.012;2023-08-08T12:16:09;2.35;;;0.80;;
23543;SDS011;11950;51.230;4.012;2023-08-08T12:18:37;1.20;;;0.80;;
23543;SDS011;11950;51.230;4.012;2023-08-08T12:21:04;1.60;;;0.90;;
23543;SDS011;11950;51.230;4.012;2023-08-08T12:23:31;1.60;;;0.88;;
23543;SDS011;11950;51.230;4.012;2023-08-08T12:25:58;1.10;;;0.75;;
23543;SDS011;11950;51.230;4.012;2023-08-08T12:28:25;2.78;;;0.70;;
23543;SDS011;11950;51.230;4.012;2023-08-08T12:30:51;2.80;;;1.02;;
23543;SDS011;11950;51.230;4.012;2023-08-08T12:33:18;1.58;;;0.70;;
23543;SDS011;11950;51.230;4.012;2023-08-08T12:35:45;3.55;;;0.98;;
23543;SDS011;11950;51.230;4.012;2023-08-08T12:38:13;1.70;;;1.10;;
23543;SDS011;11950;51.230;4.012;2023-08-08T12:40:39;3.38;;;1.20;;
23543;SDS011;11950;51.230;4.012;2023-08-08T12:43:06;3.45;;;1.20;;
23543;SDS011;11950;51.230;4.012;2023-08-08T12:45:32;1.77;;;1.00;;
23543;SDS011;11950;51.230;4.012;2023-08-08T12:47:58;2.25;;;1.05;;
23543;SDS011;11950;51.230;4.012;2023-08-08T12:50:24;2.70;;;1.25;;
23543;SDS011;11950;51.230;4.012;2023-08-08T12:52:51;3.47;;;1.40;;
23543;SDS011;11950;51.230;4.012;2023-08-08T12:55:17;1.88;;;1.38;;
23543;SDS011;11950;51.230;4.012;2023-08-08T12:57:44;5.13;;;1.42;;
23543;SDS011;11950;51.230;4.012;2023-08-08T13:00:10;3.22;;;1.40;;
23543;SDS011;11950;51.230;4.012;2023-08-08T13:02:39;2.70;;;1.02;;
23543;SDS011;11950;51.230;4.012;2023-08-08T13:05:05;2.65;;;0.95;;
23543;SDS011;11950;51.230;4.012;2023-08-08T13:07:32;3.08;;;1.08;;
23543;SDS011;11950;51.230;4.012;2023-08-08T13:09:59;1.88;;;1.00;;
23543;SDS011;11950;51.230;4.012;2023-08-08T13:12:25;1.55;;;1.00;;
23543;SDS011;11950;51.230;4.012;2023-08-08T13:14:51;1.05;;;0.80;;
23543;SDS011;11950;51.230;4.012;2023-08-08T13:17:18;1.33;;;0.93;;
23543;SDS011;11950;51.230;4.012;2023-08-08T13:19:44;1.33;;;0.85;;
23543;SDS011;11950;51.230;4.012;2023-08-08T13:22:11;3.65;;;1.23;;
23543;SDS011;11950;51.230;4.012;2023-08-08T13:24:38;1.50;;;0.90;;
23543;SDS011;11950;51.230;4.012;2023-08-08T13:27:04;1.50;;;0.90;;
23543;SDS011;11950;51.230;4.012;2023-08-08T13:29:31;3.00;;;1.08;;
23543;SDS011;11950;51.230;4.012;2023-08-08T13:31:57;2.88;;;1.00;;
23543;SDS011;11950;51.230;4.012;2023-08-08T13:34:24;1.58;;;1.08;;
23543;SDS011;11950;51.230;4.012;2023-08-08T13:36:50;4.53;;;0.90;;
23543;SDS011;11950;51.230;4.012;2023-08-08T13:39:16;1.98;;;1.00;;
23543;SDS011;11950;51.230;4.012;2023-08-08T13:41:42;2.75;;;0.90;;
23543;SDS011;11950;51.230;4.012;2023-08-08T13:44:09;3.00;;;1.00;;
23543;SDS011;11950;51.230;4.012;2023-08-08T13:46:35;3.15;;;0.88;;
23543;SDS011;11950;51.230;4.012;2023-08-08T13:49:01;2.30;;;0.82;;
23543;SDS011;11950;51.230;4.012;2023-08-08T13:51:27;2.00;;;0.90;;
23543;SDS011;11950;51.230;4.012;2023-08-08T13:53:54;2.42;;;1.27;;
23543;SDS011;11950;51.230;4.012;2023-08-08T13:56:20;4.32;;;1.10;;
23543;SDS011;11950;51.230;4.012;2023-08-08T13:58:46;1.75;;;1.10;;
23543;SDS011;11950;51.230;4.012;2023-08-08T14:01:13;1.70;;;1.00;;
23543;SDS011;11950;51.230;4.012;2023-08-08T14:03:39;1.98;;;1.15;;
23543;SDS011;11950;51.230;4.012;2023-08-08T14:06:06;2.70;;;1.10;;
23543;SDS011;11950;51.230;4.012;2023-08-08T14:08:32;3.58;;;1.35;;
23543;SDS011;11950;51.230;4.012;2023-08-08T14:10:58;3.65;;;1.30;;
23543;SDS011;11950;51.230;4.012;2023-08-08T14:13:24;1.25;;;1.10;;
23543;SDS011;11950;51.230;4.012;2023-08-08T14:15:51;4.13;;;1.40;;
23543;SDS011;11950;51.230;4.012;2023-08-08T14:18:17;1.27;;;1.10;;
23543;SDS011;11950;51.230;4.012;2023-08-08T14:20:44;2.38;;;1.20;;
23543;SDS011;11950;51.230;4.012;2023-08-08T14:23:10;4.65;;;1.10;;
23543;SDS011;11950;51.230;4.012;2023-08-08T14:25:36;2.08;;;1.00;;
23543;SDS011;11950;51.230;4.012;2023-08-08T14:28:03;2.78;;;1.52;;
23543;SDS011;11950;51.230;4.012;2023-08-08T14:30:29;2.03;;;0.90;;
23543;SDS011;11950;51.230;4.012;2023-08-08T14:32:58;1.40;;;1.00;;
23543;SDS011;11950;51.230;4.012;2023-08-08T14:35:25;1.88;;;1.00;;
23543;SDS011;11950;51.230;4.012;2023-08-08T14:37:51;2.92;;;1.35;;
23543;SDS011;11950;51.230;4.012;2023-08-08T14:40:18;3.90;;;1.20;;
23543;SDS011;11950;51.230;4.012;2023-08-08T14:42:44;6.70;;;1.20;;
23543;SDS011;11950;51.230;4.012;2023-08-08T14:45:10;1.17;;;0.90;;